Time;durP1;ratioP1;P1;durP2;ratioP2;P2;SDS_P1;SDS_P2;PMS_P1;PMS_P2;Temp;Humidity;BMP_temperature;BMP_pressure;BME280_temperature;BME280_humidity;BME280_pressure;Samples;Min_cycle;Max_cycle;Signal;HPM_P1;HPM_P2
2022/08/10 00:00:52;;;;;;;0.00;0.00;;;;;;;;;;5114091;28;20044;-82
2022/08/10 00:03:18;;;;;;;0.00;0.00;;;;;;;;;;5113707;28;20433;-81
2022/08/10 00:05:44;;;;;;;0.00;0.00;;;;;;;;;;5113958;28;20138;-81
2022/08/10 00:08:10;;;;;;;0.00;0.00;;;;;;;;;;5113668;28;20070;-82
2022/08/10 00:10:36;;;;;;;0.00;0.00;;;;;;;;;;5113817;28;20150;-81
2022/08/10 00:13:02;;;;;;;0.00;0.00;;;;;;;;;;5114276;28;20043;-81
2022/08/10 00:15:28;;;;;;;0.00;0.00;;;;;;;;;;5097020;28;20035;-82
2022/08/10 00:17:54;;;;;;;0.00;0.00;;;;;;;;;;5096927;28;20122;-81
2022/08/10 00:20:20;;;;;;;0.00;0.00;;;;;;;;;;5113525;28;20478;-81
2022/08/10 00:22:46;;;;;;;0.00;0.00;;;;;;;;;;5113159;28;20035;-82
2022/08/10 00:25:12;;;;;;;0.00;0.00;;;;;;;;;;5113290;28;20051;-82
2022/08/10 00:27:38;;;;;;;0.00;0.00;;;;;;;;;;5096497;28;20448;-81
2022/08/10 00:30:06;;;;;;;0.00;0.00;;;;;;;;;;5113266;28;20050;-82
2022/08/10 00:32:32;;;;;;;0.00;0.00;;;;;;;;;;5096131;28;20177;-81
2022/08/10 00:34:58;;;;;;;0.00;0.00;;;;;;;;;;5113326;28;20428;-81
2022/08/10 00:37:24;;;;;;;0.00;0.00;;;;;;;;;;5113332;28;20035;-81
2022/08/10 00:39:50;;;;;;;0.00;0.00;;;;;;;;;;5112989;28;20036;-83
2022/08/10 00:42:16;;;;;;;0.00;0.00;;;;;;;;;;5113139;28;20437;-82
2022/08/10 00:44:43;;;;;;;0.00;0.00;;;;;;;;;;5113011;28;20043;-82
2022/08/10 00:47:10;;;;;;;0.30;0.05;;;;;;;;;;5112816;28;20126;-82
2022/08/10 00:49:37;;;;;;;0.00;0.00;;;;;;;;;;5113201;28;20427;-82
2022/08/10 00:52:03;;;;;;;0.00;0.00;;;;;;;;;;5095930;28;20057;-83
2022/08/10 00:54:29;;;;;;;0.00;0.00;;;;;;;;;;5112662;28;20047;-80
2022/08/10 00:56:56;;;;;;;0.00;0.00;;;;;;;;;;5112836;28;20039;-80
2022/08/10 00:59:22;;;;;;;0.00;0.00;;;;;;;;;;5095835;28;20042;-80
2022/08/10 01:01:48;;;;;;;0.00;0.00;;;;;;;;;;5112708;28;20468;-81
2022/08/10 01:04:14;;;;;;;0.00;0.00;;;;;;;;;;5112498;28;20040;-80
2022/08/10 01:06:59;;;;;;;0.00;0.00;;;;;;;;;;5107182;28;20032;-81
2022/08/10 01:09:46;;;;;;;0.00;0.00;;;;;;;;;;5112083;28;20070;-81
2022/08/10 01:12:16;;;;;;;0.00;0.00;;;;;;;;;;5099588;28;20414;-80
2022/08/10 01:14:55;;;;;;;0.00;0.00;;;;;;;;;;5091949;28;20036;-81
2022/08/10 01:17:33;;;;;;;0.00;0.00;;;;;;;;;;5092192;28;20072;-81
2022/08/10 01:20:08;;;;;;;0.00;0.00;;;;;;;;;;5108160;28;20055;-81
2022/08/10 01:22:43;;;;;;;0.28;0.10;;;;;;;;;;5112243;28;20054;-80
2022/08/10 01:25:10;;;;;;;0.00;0.00;;;;;;;;;;5095037;28;20044;-81
2022/08/10 01:27:40;;;;;;;0.00;0.00;;;;;;;;;;5095337;28;20036;-81
2022/08/10 01:30:13;;;;;;;0.00;0.00;;;;;;;;;;5111802;28;20039;-81
2022/08/10 01:32:56;;;;;;;0.00;0.00;;;;;;;;;;5111164;28;20040;-81
2022/08/10 01:35:32;;;;;;;0.00;0.00;;;;;;;;;;5111845;28;20510;-80
2022/08/10 01:38:02;;;;;;;0.00;0.00;;;;;;;;;;5112709;28;20050;-80
2022/08/10 01:40:31;;;;;;;0.00;0.00;;;;;;;;;;5099959;28;20071;-81
2022/08/10 01:43:00;;;;;;;0.00;0.00;;;;;;;;;;5091614;28;20040;-81
2022/08/10 01:45:27;;;;;;;0.00;0.00;;;;;;;;;;5091162;28;20036;-81
2022/08/10 01:50:49;;;;;;;0.00;0.00;;;;;;;;;;5091030;28;20040;-81
2022/08/10 01:53:18;;;;;;;0.00;0.00;;;;;;;;;;5091355;28;20048;-81
2022/08/10 01:55:45;;;;;;;0.00;0.00;;;;;;;;;;5090919;28;20085;-80
2022/08/10 01:58:11;;;;;;;0.00;0.00;;;;;;;;;;5074431;28;20036;-81
2022/08/10 02:00:39;;;;;;;0.00;0.00;;;;;;;;;;5090998;28;20479;-80
2022/08/10 02:03:06;;;;;;;0.00;0.00;;;;;;;;;;5091311;28;20083;-81
2022/08/10 02:05:33;;;;;;;0.00;0.00;;;;;;;;;;5091012;28;20043;-81
2022/08/10 02:07:59;;;;;;;0.00;0.00;;;;;;;;;;5091370;28;20055;-81
2022/08/10 02:10:26;;;;;;;0.00;0.00;;;;;;;;;;5090624;28;20048;-80
2022/08/10 02:12:56;;;;;;;0.00;0.00;;;;;;;;;;5091202;28;20060;-81
2022/08/10 02:15:23;;;;;;;0.00;0.00;;;;;;;;;;5091008;28;20076;-81
2022/08/10 02:17:52;;;;;;;0.00;0.00;;;;;;;;;;5091057;28;20043;-81
2022/08/10 02:20:20;;;;;;;0.00;0.00;;;;;;;;;;5092469;28;20127;-81
2022/08/10 02:22:49;;;;;;;0.00;0.00;;;;;;;;;;5091005;28;20040;-81
2022/08/10 02:25:16;;;;;;;0.00;0.00;;;;;;;;;;5090807;28;20063;-81
2022/08/10 02:27:43;;;;;;;0.00;0.00;;;;;;;;;;5090984;28;20054;-81
2022/08/10 02:30:10;;;;;;;0.00;0.00;;;;;;;;;;5090625;28;20044;-81
2022/08/10 02:32:37;;;;;;;0.00;0.00;;;;;;;;;;5091086;28;20403;-81
2022/08/10 02:35:05;;;;;;;0.00;0.00;;;;;;;;;;5073894;28;20032;-81
2022/08/10 02:37:33;;;;;;;0.00;0.00;;;;;;;;;;5093493;28;20044;-81
2022/08/10 02:39:59;;;;;;;1.10;0.32;;;;;;;;;;5111001;28;20035;-81
2022/08/10 02:42:28;;;;;;;0.00;0.00;;;;;;;;;;5111109;28;20479;-81
2022/08/10 02:45:16;;;;;;;0.00;0.00;;;;;;;;;;5113088;28;20505;-81
2022/08/10 02:47:44;;;;;;;0.00;0.00;;;;;;;;;;5115356;28;20054;-81
2022/08/10 02:50:29;;;;;;;0.00;0.00;;;;;;;;;;5114963;28;20039;-81
2022/08/10 02:53:01;;;;;;;0.00;0.00;;;;;;;;;;5115246;28;20043;-81
2022/08/10 02:55:31;;;;;;;0.00;0.00;;;;;;;;;;5115265;28;20036;-81
2022/08/10 02:57:58;;;;;;;0.00;0.00;;;;;;;;;;5115069;28;20046;-81
2022/08/10 03:00:25;;;;;;;0.00;0.00;;;;;;;;;;5097850;28;20075;-81
2022/08/10 03:02:51;;;;;;;0.00;0.00;;;;;;;;;;5115067;28;20043;-81
2022/08/10 03:05:19;;;;;;;0.00;0.00;;;;;;;;;;5114768;28;20039;-81
2022/08/10 03:07:51;;;;;;;0.00;0.00;;;;;;;;;;5114944;28;20044;-81
2022/08/10 03:10:19;;;;;;;0.00;0.00;;;;;;;;;;5114664;28;20082;-81
2022/08/10 03:12:48;;;;;;;0.00;0.00;;;;;;;;;;5114696;28;20487;-81
2022/08/10 03:15:15;;;;;;;0.00;0.00;;;;;;;;;;5114858;28;20042;-81
2022/08/10 03:17:41;;;;;;;0.00;0.00;;;;;;;;;;5114752;28;20375;-81
2022/08/10 03:20:08;;;;;;;0.00;0.00;;;;;;;;;;5114519;28;20482;-80
2022/08/10 03:22:34;;;;;;;0.00;0.00;;;;;;;;;;5114802;28;20116;-81
2022/08/10 03:25:01;;;;;;;0.00;0.00;;;;;;;;;;5097257;28;20047;-81
2022/08/10 03:27:27;;;;;;;0.00;0.00;;;;;;;;;;5097359;28;20108;-81
2022/08/10 03:29:55;;;;;;;0.00;0.00;;;;;;;;;;5114178;28;20044;-81
2022/08/10 03:32:22;;;;;;;0.00;0.00;;;;;;;;;;5114255;28;20036;-81
2022/08/10 03:34:48;;;;;;;0.00;0.00;;;;;;;;;;5114283;28;20131;-81
2022/08/10 03:37:14;;;;;;;0.00;0.00;;;;;;;;;;5097151;28;20226;-81
2022/08/10 03:39:41;;;;;;;0.00;0.00;;;;;;;;;;5114275;28;20048;-81
2022/08/10 03:42:11;;;;;;;0.00;0.00;;;;;;;;;;5096865;28;20123;-80
2022/08/10 03:44:37;;;;;;;0.00;0.00;;;;;;;;;;5114336;28;20201;-81
2022/08/10 03:47:04;;;;;;;0.00;0.00;;;;;;;;;;5097062;28;20040;-81
2022/08/10 03:49:31;;;;;;;0.00;0.00;;;;;;;;;;5113985;28;20031;-81
2022/08/10 03:51:58;;;;;;;0.00;0.00;;;;;;;;;;5114061;28;20406;-83
2022/08/10 03:54:25;;;;;;;0.00;0.00;;;;;;;;;;5113916;28;20046;-83
2022/08/10 03:56:51;;;;;;;0.00;0.00;;;;;;;;;;5112786;28;20035;-81
2022/08/10 03:59:17;;;;;;;0.20;0.13;;;;;;;;;;5113881;28;20069;-81
2022/08/10 04:01:44;;;;;;;0.00;0.00;;;;;;;;;;5113612;28;20101;-80
2022/08/10 04:04:10;;;;;;;0.00;0.00;;;;;;;;;;5113920;28;20048;-81
2022/08/10 04:06:37;;;;;;;0.00;0.00;;;;;;;;;;5113785;28;20043;-80
2022/08/10 04:09:03;;;;;;;0.00;0.00;;;;;;;;;;5113692;28;20046;-81
2022/08/10 04:11:29;;;;;;;0.00;0.00;;;;;;;;;;5113367;28;20394;-80
2022/08/10 04:13:55;;;;;;;0.20;0.10;;;;;;;;;;5113671;28;20055;-81
2022/08/10 04:16:21;;;;;;;0.00;0.00;;;;;;;;;;5113496;28;20043;-81
2022/08/10 04:18:47;;;;;;;0.00;0.00;;;;;;;;;;5113821;28;20043;-80
2022/08/10 04:21:22;;;;;;;0.00;0.00;;;;;;;;;;5096392;28;20036;-80
2022/08/10 04:23:48;;;;;;;;;;;;;;;;;;5113973;28;20042;-81
2022/08/10 04:26:14;;;;;;;;;;;;;;;;;;5113669;28;19916;-80
2022/08/10 04:28:41;;;;;;;0.00;0.00;;;;;;;;;;5113437;28;19920;-81
2022/08/10 04:31:08;;;;;;;0.00;0.00;;;;;;;;;;5113178;28;20046;-81
2022/08/10 04:33:36;;;;;;;0.00;0.00;;;;;;;;;;5113298;28;20067;-81
2022/08/10 04:36:02;;;;;;;0.00;0.00;;;;;;;;;;5096020;28;20555;-81
2022/08/10 04:38:30;;;;;;;0.00;0.00;;;;;;;;;;5095840;28;20032;-81
2022/08/10 04:40:56;;;;;;;0.00;0.00;;;;;;;;;;5113246;28;20031;-80
2022/08/10 04:43:22;;;;;;;0.00;0.00;;;;;;;;;;5113350;28;20039;-80
2022/08/10 04:45:48;;;;;;;0.00;0.00;;;;;;;;;;5096029;28;20042;-81
2022/08/10 04:48:14;;;;;;;0.00;0.00;;;;;;;;;;5096144;28;20043;-81
2022/08/10 04:50:40;;;;;;;0.00;0.00;;;;;;;;;;5112737;28;20043;-80
2022/08/10 04:53:06;;;;;;;0.00;0.00;;;;;;;;;;5113032;28;20085;-81
2022/08/10 04:55:32;;;;;;;0.00;0.00;;;;;;;;;;5112999;28;20044;-80
2022/08/10 04:57:58;;;;;;;0.00;0.00;;;;;;;;;;5112896;28;20580;-80
2022/08/10 05:00:24;;;;;;;0.00;0.00;;;;;;;;;;5112886;28;20078;-80
2022/08/10 05:02:50;;;;;;;0.00;0.00;;;;;;;;;;5112949;28;20075;-81
2022/08/10 05:05:16;;;;;;;0.00;0.00;;;;;;;;;;5092674;28;20044;-80
2022/08/10 05:07:42;;;;;;;0.00;0.00;;;;;;;;;;5099132;28;20505;-81
2022/08/10 05:10:09;;;;;;;0.00;0.00;;;;;;;;;;5103079;28;20036;-81
2022/08/10 05:12:35;;;;;;;0.00;0.00;;;;;;;;;;5092002;28;20491;-81
2022/08/10 05:15:01;;;;;;;0.00;0.00;;;;;;;;;;5092322;28;20498;-81
2022/08/10 05:17:27;;;;;;;0.00;0.00;;;;;;;;;;5078616;28;20031;-81
2022/08/10 05:19:53;;;;;;;0.00;0.00;;;;;;;;;;5112920;28;20046;-81
2022/08/10 05:22:19;;;;;;;0.00;0.00;;;;;;;;;;5095725;28;20478;-81
2022/08/10 05:24:45;;;;;;;0.00;0.00;;;;;;;;;;5112838;28;20070;-80
2022/08/10 05:27:11;;;;;;;0.00;0.00;;;;;;;;;;5095161;28;20402;-81
2022/08/10 05:29:37;;;;;;;0.20;0.00;;;;;;;;;;5112348;28;20040;-81
2022/08/10 05:32:03;;;;;;;0.00;0.00;;;;;;;;;;5111912;28;20043;-80
2022/08/10 05:34:29;;;;;;;0.00;0.00;;;;;;;;;;5112411;28;20490;-81
2022/08/10 05:36:56;;;;;;;0.00;0.00;;;;;;;;;;5112021;28;20093;-81
2022/08/10 05:39:22;;;;;;;0.00;0.00;;;;;;;;;;5093266;28;20046;-81
2022/08/10 05:41:53;;;;;;;0.00;0.00;;;;;;;;;;5091556;28;20047;-81
2022/08/10 05:44:22;;;;;;;0.00;0.00;;;;;;;;;;5091768;28;20040;-81
2022/08/10 05:46:49;;;;;;;0.00;0.00;;;;;;;;;;5091420;28;20040;-81
2022/08/10 05:49:15;;;;;;;0.00;0.00;;;;;;;;;;5074563;28;20040;-81
2022/08/10 05:51:42;;;;;;;0.00;0.00;;;;;;;;;;5091235;28;20452;-81
2022/08/10 05:54:13;;;;;;;0.00;0.00;;;;;;;;;;5074732;28;20040;-80
2022/08/10 05:56:41;;;;;;;0.00;0.00;;;;;;;;;;5091344;28;20047;-81
2022/08/10 05:59:07;;;;;;;0.00;0.00;;;;;;;;;;5091624;28;20031;-81
2022/08/10 06:01:33;;;;;;;0.00;0.00;;;;;;;;;;5091329;28;20081;-81
2022/08/10 06:04:01;;;;;;;0.00;0.00;;;;;;;;;;5091471;28;20048;-80
2022/08/10 06:06:29;;;;;;;0.00;0.00;;;;;;;;;;5074819;28;20043;-81
2022/08/10 06:08:56;;;;;;;0.00;0.00;;;;;;;;;;5093288;28;20085;-81
2022/08/10 06:11:22;;;;;;;0.00;0.00;;;;;;;;;;5111585;28;20380;-81
2022/08/10 06:16:34;;;;;;;0.00;0.00;;;;;;;;;;5111352;28;20094;-81
2022/08/10 06:19:00;;;;;;;0.00;0.00;;;;;;;;;;5094005;28;20042;-80
2022/08/10 06:21:27;;;;;;;0.00;0.00;;;;;;;;;;5111448;28;20504;-81
2022/08/10 06:23:53;;;;;;;0.00;0.00;;;;;;;;;;5094295;28;20040;-81
2022/08/10 06:26:19;;;;;;;0.00;0.00;;;;;;;;;;5111312;28;20062;-81
2022/08/10 06:28:48;;;;;;;0.00;0.00;;;;;;;;;;5111201;28;20039;-81
2022/08/10 06:31:14;;;;;;;0.10;0.00;;;;;;;;;;5111533;28;20045;-81
2022/08/10 06:33:41;;;;;;;0.00;0.00;;;;;;;;;;5111090;28;20047;-82
2022/08/10 06:36:08;;;;;;;0.00;0.00;;;;;;;;;;5094479;28;20058;-83
2022/08/10 06:38:35;;;;;;;0.00;0.00;;;;;;;;;;5093608;28;20071;-84
2022/08/10 06:41:07;;;;;;;0.00;0.00;;;;;;;;;;5094318;28;20036;-83
2022/08/10 06:43:34;;;;;;;0.00;0.00;;;;;;;;;;5094217;28;20047;-85
2022/08/10 06:46:02;;;;;;;0.00;0.00;;;;;;;;;;5111345;28;20031;-84
2022/08/10 06:48:34;;;;;;;0.00;0.00;;;;;;;;;;5094895;28;20067;-87
2022/08/10 06:51:01;;;;;;;0.00;0.00;;;;;;;;;;5111633;28;20044;-85
2022/08/10 06:53:36;;;;;;;0.00;0.00;;;;;;;;;;5094585;28;20075;-80
2022/08/10 06:56:04;;;;;;;0.00;0.00;;;;;;;;;;5111766;28;20035;-85
2022/08/10 06:58:39;;;;;;;0.00;0.00;;;;;;;;;;5090062;28;20032;-89
2022/08/10 07:01:06;;;;;;;0.00;0.00;;;;;;;;;;5099513;28;20035;-82
2022/08/10 07:03:34;;;;;;;0.00;0.00;;;;;;;;;;5111100;28;20039;-84
2022/08/10 07:06:04;;;;;;;0.00;0.00;;;;;;;;;;5102426;28;20039;-84
2022/08/10 07:08:32;;;;;;;0.00;0.00;;;;;;;;;;5090485;28;20039;-84
2022/08/10 07:10:58;;;;;;;0.00;0.00;;;;;;;;;;5090461;28;20147;-84
2022/08/10 07:13:25;;;;;;;0.00;0.00;;;;;;;;;;5090413;28;20051;-84
2022/08/10 07:15:51;;;;;;;0.00;0.00;;;;;;;;;;5073693;28;20043;-85
2022/08/10 07:18:18;;;;;;;0.00;0.00;;;;;;;;;;5090430;28;20036;-84
2022/08/10 07:20:45;;;;;;;0.00;0.00;;;;;;;;;;5073445;28;20552;-84
2022/08/10 07:23:11;;;;;;;0.00;0.00;;;;;;;;;;5073915;28;20047;-84
2022/08/10 07:25:38;;;;;;;0.00;0.00;;;;;;;;;;5083087;28;20044;-82
2022/08/10 07:28:04;;;;;;;0.00;0.00;;;;;;;;;;5073704;28;20048;-85
2022/08/10 07:30:33;;;;;;;0.00;0.00;;;;;;;;;;5105942;28;20169;-83
2022/08/10 07:33:00;;;;;;;0.00;0.00;;;;;;;;;;5111264;28;20175;-83
2022/08/10 07:35:27;;;;;;;0.00;0.00;;;;;;;;;;5111603;28;20043;-82
2022/08/10 07:37:54;;;;;;;0.00;0.00;;;;;;;;;;5111463;28;20139;-84
2022/08/10 07:40:20;;;;;;;0.00;0.00;;;;;;;;;;5112351;28;20047;-86
2022/08/10 07:42:47;;;;;;;0.00;0.00;;;;;;;;;;5096387;28;20036;-83
2022/08/10 07:45:13;;;;;;;0.00;0.00;;;;;;;;;;5097210;28;20481;-83
2022/08/10 07:47:48;;;;;;;0.00;0.00;;;;;;;;;;5114360;28;20059;-83
2022/08/10 07:50:16;;;;;;;0.00;0.00;;;;;;;;;;5114124;28;20040;-84
2022/08/10 07:52:47;;;;;;;0.00;0.00;;;;;;;;;;5097151;28;20036;-83
2022/08/10 07:55:16;;;;;;;0.00;0.00;;;;;;;;;;5098147;28;20043;-83
2022/08/10 07:57:43;;;;;;;0.00;0.00;;;;;;;;;;5114020;28;20036;-81
2022/08/10 08:00:10;;;;;;;0.00;0.00;;;;;;;;;;5097159;28;20415;-83
2022/08/10 08:02:39;;;;;;;0.00;0.00;;;;;;;;;;5096866;28;20059;-84
2022/08/10 08:05:07;;;;;;;0.00;0.00;;;;;;;;;;5113918;28;20122;-85
2022/08/10 08:07:34;;;;;;;0.00;0.00;;;;;;;;;;5113657;28;20039;-84
2022/08/10 08:10:01;;;;;;;0.00;0.00;;;;;;;;;;5113496;28;20040;-83
2022/08/10 08:12:27;;;;;;;0.00;0.00;;;;;;;;;;5113760;28;20128;-83
2022/08/10 08:14:55;;;;;;;0.00;0.00;;;;;;;;;;5113752;28;20042;-83
2022/08/10 08:17:23;;;;;;;0.00;0.00;;;;;;;;;;5113568;28;20058;-83
2022/08/10 08:19:50;;;;;;;0.00;0.00;;;;;;;;;;5096257;28;20040;-83
2022/08/10 08:22:17;;;;;;;0.00;0.00;;;;;;;;;;5113472;28;20040;-83
2022/08/10 08:24:43;;;;;;;0.00;0.00;;;;;;;;;;5096309;28;20502;-83
2022/08/10 08:27:10;;;;;;;0.00;0.00;;;;;;;;;;5113360;28;20048;-82
2022/08/10 08:29:38;;;;;;;0.00;0.00;;;;;;;;;;5096127;28;20134;-83
2022/08/10 08:32:05;;;;;;;0.00;0.00;;;;;;;;;;5096278;28;20040;-81
2022/08/10 08:34:32;;;;;;;0.00;0.00;;;;;;;;;;5113855;28;20046;-83
2022/08/10 08:36:59;;;;;;;0.00;0.00;;;;;;;;;;5118232;28;20104;-84
2022/08/10 08:39:25;;;;;;;0.00;0.00;;;;;;;;;;5116839;28;20051;-85
2022/08/10 08:42:10;;;;;;;0.00;0.00;;;;;;;;;;5100192;28;20032;-84
2022/08/10 08:44:42;;;;;;;0.00;0.00;;;;;;;;;;5102287;28;20050;-84
2022/08/10 08:47:27;;;;;;;0.00;0.00;;;;;;;;;;5116601;28;20046;-83
2022/08/10 08:50:03;;;;;;;0.00;0.00;;;;;;;;;;5115808;28;20046;-84
2022/08/10 08:52:48;;;;;;;0.00;0.00;;;;;;;;;;5116820;28;20047;-84
2022/08/10 08:55:33;;;;;;;0.00;0.00;;;;;;;;;;5117884;28;20031;-84
2022/08/10 08:58:20;;;;;;;0.00;0.00;;;;;;;;;;5098668;28;20036;-83
2022/08/10 09:01:15;;;;;;;0.00;0.00;;;;;;;;;;5114648;28;20040;-83
2022/08/10 09:03:41;;;;;;;0.00;0.00;;;;;;;;;;5091586;28;20096;-83
2022/08/10 09:06:16;;;;;;;0.00;0.00;;;;;;;;;;5095828;28;20044;-83
2022/08/10 09:08:45;;;;;;;0.00;0.00;;;;;;;;;;5112628;28;20493;-82
2022/08/10 09:11:22;;;;;;;0.00;0.00;;;;;;;;;;5095574;28;20471;-83
2022/08/10 09:13:53;;;;;;;0.00;0.00;;;;;;;;;;5095624;28;20082;-83
2022/08/10 09:16:26;;;;;;;0.00;0.00;;;;;;;;;;5112831;28;20193;-83
2022/08/10 09:19:08;;;;;;;0.00;0.00;;;;;;;;;;5112379;28;20042;-84
2022/08/10 09:21:33;;;;;;;0.00;0.00;;;;;;;;;;5095670;28;20042;-84
2022/08/10 09:24:18;;;;;;;0.00;0.00;;;;;;;;;;5112653;28;20047;-84
2022/08/10 09:26:51;;;;;;;0.00;0.00;;;;;;;;;;5113035;28;20123;-84
2022/08/10 09:29:26;;;;;;;0.00;0.00;;;;;;;;;;5112079;28;20035;-84
2022/08/10 09:32:13;;;;;;;0.00;0.00;;;;;;;;;;5105423;28;20394;-83
2022/08/10 09:34:45;;;;;;;0.00;0.00;;;;;;;;;;5080755;28;20035;-84
2022/08/10 09:37:23;;;;;;;0.00;0.00;;;;;;;;;;5093263;28;20096;-84
2022/08/10 09:39:55;;;;;;;0.00;0.00;;;;;;;;;;5091983;28;20085;-84
2022/08/10 09:42:24;;;;;;;0.00;0.00;;;;;;;;;;5091952;28;20040;-85
2022/08/10 09:44:54;;;;;;;0.00;0.00;;;;;;;;;;5075333;28;20054;-83
2022/08/10 09:47:47;;;;;;;0.00;0.00;;;;;;;;;;5104491;28;20404;-83
2022/08/10 09:50:20;;;;;;;0.00;0.00;;;;;;;;;;5050020;28;20483;-84
2022/08/10 09:53:05;;;;;;;0.00;0.00;;;;;;;;;;5112181;28;20039;-86
2022/08/10 09:55:37;;;;;;;0.00;0.00;;;;;;;;;;5111247;28;20513;-82
2022/08/10 09:58:03;;;;;;;0.00;0.00;;;;;;;;;;5111969;28;20046;-83
2022/08/10 10:00:39;;;;;;;0.00;0.00;;;;;;;;;;5111555;28;20035;-82
2022/08/10 10:03:28;;;;;;;0.00;0.00;;;;;;;;;;5112543;28;20044;-83
2022/08/10 10:06:09;;;;;;;0.00;0.00;;;;;;;;;;5098968;28;20418;-83
2022/08/10 10:08:41;;;;;;;0.00;0.00;;;;;;;;;;5094892;28;20040;-83
2022/08/10 10:11:32;;;;;;;0.00;0.00;;;;;;;;;;5094654;28;20431;-83
2022/08/10 10:14:06;;;;;;;0.00;0.00;;;;;;;;;;5111542;28;20118;-83
2022/08/10 10:16:37;;;;;;;0.00;0.00;;;;;;;;;;5111787;28;20092;-82
2022/08/10 10:19:18;;;;;;;0.00;0.00;;;;;;;;;;5111375;28;20065;-83
2022/08/10 10:21:47;;;;;;;0.00;0.00;;;;;;;;;;5113050;28;20032;-82
2022/08/10 10:24:46;;;;;;;0.00;0.00;;;;;;;;;;5094731;28;20047;-82
2022/08/10 10:27:22;;;;;;;0.00;0.00;;;;;;;;;;5040570;28;20047;-83
2022/08/10 10:29:59;;;;;;;0.00;0.00;;;;;;;;;;5111680;28;20028;-83
2022/08/10 10:32:28;;;;;;;0.00;0.00;;;;;;;;;;5094683;28;20044;-83
2022/08/10 10:35:07;;;;;;;0.00;0.00;;;;;;;;;;5111479;28;20042;-83
2022/08/10 10:37:34;;;;;;;0.00;0.00;;;;;;;;;;5111544;28;20115;-83
2022/08/10 10:40:01;;;;;;;0.00;0.00;;;;;;;;;;5111370;28;20080;-83
2022/08/10 10:42:46;;;;;;;0.00;0.00;;;;;;;;;;5095029;28;20089;-83
2022/08/10 10:45:15;;;;;;;0.00;0.00;;;;;;;;;;5094991;28;20089;-83
2022/08/10 10:47:52;;;;;;;0.00;0.00;;;;;;;;;;5111805;28;20139;-83
2022/08/10 10:50:22;;;;;;;0.00;0.00;;;;;;;;;;5094081;28;20128;-83
2022/08/10 10:52:47;;;;;;;0.00;0.00;;;;;;;;;;5093723;28;20097;-82
2022/08/10 10:55:21;;;;;;;0.00;0.00;;;;;;;;;;5111169;28;20040;-83
2022/08/10 10:58:02;;;;;;;0.00;0.00;;;;;;;;;;5111188;28;20043;-83
2022/08/10 11:00:38;;;;;;;0.00;0.00;;;;;;;;;;5110902;28;20089;-83
2022/08/10 11:03:07;;;;;;;0.00;0.00;;;;;;;;;;5111155;28;20050;-83
2022/08/10 11:05:42;;;;;;;0.00;0.00;;;;;;;;;;5095391;28;20050;-83
2022/08/10 11:08:08;;;;;;;;;;;;;;;;;;5115679;28;20035;-83
2022/08/10 11:10:37;;;;;;;0.00;0.00;;;;;;;;;;5114505;28;20022;-83
2022/08/10 11:13:12;;;;;;;0.00;0.00;;;;;;;;;;5115032;28;20044;-84
2022/08/10 11:15:38;;;;;;;;;;;;;;;;;;5098399;28;20039;-83
2022/08/10 11:18:08;;;;;;;0.00;0.00;;;;;;;;;;5114946;28;19922;-83
2022/08/10 11:20:54;;;;;;;0.00;0.00;;;;;;;;;;5114655;28;20067;-83
2022/08/10 11:23:20;;;;;;;;;;;;;;;;;;5115652;28;20043;-83
2022/08/10 11:25:55;;;;;;;0.00;0.00;;;;;;;;;;5097475;28;20370;-83
2022/08/10 11:28:21;;;;;;;;;;;;;;;;;;5115334;28;20047;-83
2022/08/10 11:30:51;;;;;;;0.00;0.00;;;;;;;;;;5114258;28;19920;-83
2022/08/10 11:33:36;;;;;;;0.00;0.00;;;;;;;;;;5114535;28;20035;-84
2022/08/10 11:36:05;;;;;;;0.00;0.00;;;;;;;;;;5114104;28;20043;-83
2022/08/10 11:38:41;;;;;;;0.00;0.00;;;;;;;;;;5114466;28;20032;-83
2022/08/10 11:41:10;;;;;;;0.00;0.00;;;;;;;;;;5097055;28;20044;-84
2022/08/10 11:43:39;;;;;;;0.00;0.00;;;;;;;;;;5097263;28;20059;-83
2022/08/10 11:46:11;;;;;;;0.00;0.00;;;;;;;;;;5114006;28;20043;-83
2022/08/10 11:48:48;;;;;;;0.00;0.00;;;;;;;;;;5114020;28;20509;-83
2022/08/10 11:51:30;;;;;;;0.00;0.00;;;;;;;;;;5114087;28;20047;-83
2022/08/10 11:54:11;;;;;;;0.00;0.00;;;;;;;;;;5114210;28;20119;-83
2022/08/10 11:56:44;;;;;;;0.00;0.00;;;;;;;;;;5113887;28;20035;-83
2022/08/10 12:01:56;;;;;;;0.00;0.00;;;;;;;;;;5113769;28;20039;-83
2022/08/10 12:04:23;;;;;;;0.00;0.00;;;;;;;;;;5110975;28;20401;-84
2022/08/10 12:06:50;;;;;;;0.00;0.00;;;;;;;;;;5085973;28;20044;-84
2022/08/10 12:09:16;;;;;;;0.00;0.00;;;;;;;;;;5077303;28;20102;-84
2022/08/10 12:11:43;;;;;;;0.00;0.00;;;;;;;;;;5076351;28;20522;-82
2022/08/10 12:14:17;;;;;;;0.00;0.00;;;;;;;;;;5077063;28;20490;-83
2022/08/10 12:16:48;;;;;;;0.00;0.00;;;;;;;;;;5088992;28;20128;-83
2022/08/10 12:19:20;;;;;;;0.00;0.00;;;;;;;;;;5088497;28;20051;-82
2022/08/10 12:21:49;;;;;;;0.00;0.00;;;;;;;;;;5110299;28;20513;-82
2022/08/10 12:24:23;;;;;;;0.00;0.00;;;;;;;;;;5113545;28;20387;-81
2022/08/10 12:27:04;;;;;;;0.00;0.00;;;;;;;;;;5096149;28;20381;-83
2022/08/10 12:29:33;;;;;;;0.00;0.00;;;;;;;;;;5096389;28;20077;-82
2022/08/10 12:32:13;;;;;;;0.00;0.00;;;;;;;;;;5113007;28;20042;-82
2022/08/10 12:35:18;;;;;;;0.00;0.00;;;;;;;;;;5104805;28;20181;-82
2022/08/10 12:37:44;;;;;;;0.00;0.00;;;;;;;;;;5047978;28;20068;-82
2022/08/10 12:40:10;;;;;;;0.00;0.00;;;;;;;;;;5035185;28;20547;-82
2022/08/10 12:42:44;;;;;;;0.00;0.00;;;;;;;;;;5043978;28;20098;-83
2022/08/10 12:45:19;;;;;;;0.00;0.00;;;;;;;;;;5092862;28;20387;-82
2022/08/10 12:47:45;;;;;;;0.00;0.00;;;;;;;;;;5092339;28;20495;-82
2022/08/10 12:50:11;;;;;;;0.00;0.00;;;;;;;;;;5092575;28;20062;-82
2022/08/10 12:52:41;;;;;;;0.00;0.00;;;;;;;;;;5075381;28;20051;-82
2022/08/10 12:55:09;;;;;;;0.00;0.00;;;;;;;;;;5092435;28;20043;-82
2022/08/10 12:57:36;;;;;;;0.00;0.00;;;;;;;;;;5092234;28;20040;-82
2022/08/10 13:00:04;;;;;;;0.00;0.00;;;;;;;;;;5092307;28;20161;-82
2022/08/10 13:02:31;;;;;;;0.00;0.00;;;;;;;;;;5075128;28;20044;-82
2022/08/10 13:05:00;;;;;;;0.00;0.00;;;;;;;;;;5092372;28;20040;-82
2022/08/10 13:07:30;;;;;;;0.00;0.00;;;;;;;;;;5111994;28;20502;-83
2022/08/10 13:10:00;;;;;;;0.00;0.00;;;;;;;;;;5095395;28;20312;-82
2022/08/10 13:12:30;;;;;;;0.00;0.00;;;;;;;;;;5112298;28;20054;-82
2022/08/10 13:15:03;;;;;;;0.00;0.00;;;;;;;;;;5112663;28;20031;-84
2022/08/10 13:17:31;;;;;;;0.00;0.00;;;;;;;;;;5112356;28;20483;-84
2022/08/10 13:19:58;;;;;;;0.00;0.00;;;;;;;;;;5112346;28;20036;-84
2022/08/10 13:22:26;;;;;;;0.00;0.00;;;;;;;;;;5111030;28;20336;-83
2022/08/10 13:24:53;;;;;;;0.00;0.00;;;;;;;;;;5095309;28;20039;-84
2022/08/10 13:27:24;;;;;;;0.00;0.00;;;;;;;;;;5111913;28;20046;-86
2022/08/10 13:29:54;;;;;;;0.00;0.00;;;;;;;;;;5111209;28;20043;-85
2022/08/10 13:32:26;;;;;;;0.00;0.00;;;;;;;;;;5111813;28;20051;-84
2022/08/10 13:34:54;;;;;;;0.00;0.00;;;;;;;;;;5112546;28;20051;-84
2022/08/10 13:37:22;;;;;;;0.00;0.00;;;;;;;;;;5111931;28;20073;-84
2022/08/10 13:39:50;;;;;;;0.00;0.00;;;;;;;;;;5111931;28;20081;-84
2022/08/10 13:42:17;;;;;;;0.00;0.00;;;;;;;;;;5111666;28;20043;-85
2022/08/10 13:44:44;;;;;;;0.00;0.00;;;;;;;;;;5111938;28;20036;-84
2022/08/10 13:47:11;;;;;;;0.15;0.15;;;;;;;;;;5111805;28;20406;-84
2022/08/10 13:49:46;;;;;;;0.00;0.00;;;;;;;;;;5111776;28;20424;-84
2022/08/10 13:52:18;;;;;;;0.00;0.00;;;;;;;;;;5111488;28;20051;-83
2022/08/10 13:54:44;;;;;;;0.00;0.00;;;;;;;;;;5111955;28;20046;-83
2022/08/10 13:57:11;;;;;;;0.00;0.00;;;;;;;;;;5111766;28;20557;-84
2022/08/10 13:59:39;;;;;;;0.00;0.00;;;;;;;;;;5111673;28;20036;-84
2022/08/10 14:02:05;;;;;;;0.00;0.00;;;;;;;;;;5094575;28;20134;-84
2022/08/10 14:04:32;;;;;;;0.00;0.00;;;;;;;;;;5111533;28;20043;-84
2022/08/10 14:06:59;;;;;;;0.00;0.00;;;;;;;;;;5111298;28;20085;-84
2022/08/10 14:09:32;;;;;;;0.00;0.00;;;;;;;;;;5111622;28;20118;-84
2022/08/10 14:11:58;;;;;;;0.00;0.00;;;;;;;;;;5110878;28;20463;-84
2022/08/10 14:14:26;;;;;;;0.00;0.00;;;;;;;;;;5111576;28;20047;-84
2022/08/10 14:16:52;;;;;;;0.00;0.00;;;;;;;;;;5110875;28;20039;-84
2022/08/10 14:19:30;;;;;;;0.00;0.00;;;;;;;;;;5111312;28;20040;-84
2022/08/10 14:21:56;;;;;;;0.00;0.00;;;;;;;;;;5111100;28;20534;-83
2022/08/10 14:24:24;;;;;;;0.00;0.00;;;;;;;;;;5094861;28;20149;-83
2022/08/10 14:26:50;;;;;;;0.00;0.00;;;;;;;;;;5094247;28;20169;-82
2022/08/10 14:29:17;;;;;;;0.00;0.00;;;;;;;;;;5111216;28;20092;-83
2022/08/10 14:31:47;;;;;;;0.00;0.00;;;;;;;;;;5111324;28;20040;-82
2022/08/10 14:34:14;;;;;;;0.00;0.00;;;;;;;;;;5111213;28;20036;-86
2022/08/10 14:36:46;;;;;;;0.00;0.00;;;;;;;;;;5111021;28;20044;-82
2022/08/10 14:39:19;;;;;;;0.00;0.00;;;;;;;;;;5111415;28;20575;-84
2022/08/10 14:41:45;;;;;;;0.00;0.00;;;;;;;;;;5114516;28;20043;-82
2022/08/10 14:44:12;;;;;;;0.00;0.00;;;;;;;;;;5115773;28;20070;-82
2022/08/10 14:46:43;;;;;;;0.00;0.00;;;;;;;;;;5096556;28;20043;-82
2022/08/10 14:49:10;;;;;;;0.00;0.00;;;;;;;;;;5115467;28;20115;-83
2022/08/10 14:51:40;;;;;;;0.00;0.00;;;;;;;;;;5115342;28;20501;-81
2022/08/10 14:54:14;;;;;;;0.00;0.00;;;;;;;;;;5116854;28;20043;-83
2022/08/10 14:56:40;;;;;;;0.00;0.00;;;;;;;;;;5115267;28;20048;-83
2022/08/10 14:59:07;;;;;;;0.00;0.00;;;;;;;;;;5114962;28;20036;-83
2022/08/10 15:01:34;;;;;;;0.00;0.00;;;;;;;;;;5115229;28;20035;-82
2022/08/10 15:04:02;;;;;;;0.00;0.00;;;;;;;;;;5115027;28;20053;-83
2022/08/10 15:06:30;;;;;;;0.00;0.00;;;;;;;;;;5115056;28;20050;-83
2022/08/10 15:09:22;;;;;;;0.00;0.00;;;;;;;;;;5114820;28;20505;-82